Time;durP1;ratioP1;P1;durP2;ratioP2;P2;SDS_P1;SDS_P2;PMS_P1;PMS_P2;Temp;Humidity;BMP_temperature;BMP_pressure;BME280_temperature;BME280_humidity;BME280_pressure;Samples;Min_cycle;Max_cycle;Signal;HPM_P1;HPM_P2
2023/11/28 00:00:02;;;;;;;22.30;7.45;;;;;;;3.55;77.43;97943.25;10200104;29;20052;-60
2023/11/28 00:05:04;;;;;;;16.42;6.72;;;;;;;3.64;77.53;97943.13;10195620;29;20132;-60
2023/11/28 00:10:08;;;;;;;19.50;6.82;;;;;;;3.70;76.99;97940.50;10202740;29;20516;-59
2023/11/28 00:15:10;;;;;;;18.35;6.55;;;;;;;3.69;77.73;97927.41;10200863;29;20054;-60
2023/11/28 00:20:11;;;;;;;19.27;6.47;;;;;;;3.72;77.65;97924.38;10197730;29;20110;-59
2023/11/28 00:25:14;;;;;;;20.38;6.55;;;;;;;3.70;77.81;97921.91;10200946;29;20055;-59
2023/11/28 00:30:16;;;;;;;22.08;9.07;;;;;;;3.73;77.01;97916.22;10198070;29;20055;-60
2023/11/28 00:35:17;;;;;;;20.65;8.30;;;;;;;3.80;77.36;97907.50;10202314;29;20047;-60
2023/11/28 00:40:19;;;;;;;19.08;8.15;;;;;;;3.83;76.87;97909.75;10198404;29;20515;-60
2023/11/28 00:45:24;;;;;;;21.70;7.20;;;;;;;3.79;77.31;97911.97;10200767;29;20764;-59
2023/11/28 00:50:26;;;;;;;22.92;7.97;;;;;;;3.81;77.29;97907.31;10199375;29;20060;-60
2023/11/28 00:55:27;;;;;;;18.30;7.32;;;;;;;3.87;77.18;97903.88;10199073;29;20086;-60
2023/11/28 01:00:29;;;;;;;16.25;7.28;;;;;;;3.87;76.82;97905.69;10180341;29;20083;-60
2023/11/28 01:05:31;;;;;;;23.83;9.15;;;;;;;3.89;77.27;97909.81;10198633;29;20057;-60
2023/11/28 01:10:32;;;;;;;20.85;8.00;;;;;;;3.92;77.18;97901.44;10197153;29;20067;-60
2023/11/28 01:15:33;;;;;;;21.83;8.38;;;;;;;3.95;76.91;97903.72;10195351;29;20152;-60
2023/11/28 01:20:35;;;;;;;25.02;8.18;;;;;;;3.95;76.68;97905.56;10197242;29;20056;-60
2023/11/28 01:25:36;;;;;;;21.05;8.27;;;;;;;3.97;76.84;97909.66;10197179;29;20055;-60
2023/11/28 01:30:38;;;;;;;24.92;8.48;;;;;;;3.97;76.62;97907.00;10181321;29;20573;-61
2023/11/28 01:35:39;;;;;;;22.35;8.90;;;;;;;3.95;76.78;97905.56;10197059;29;20062;-61
2023/11/28 01:40:41;;;;;;;25.20;9.68;;;;;;;3.99;76.78;97912.13;10195107;29;20114;-60
2023/11/28 01:45:42;;;;;;;26.08;7.72;;;;;;;4.00;76.70;97919.06;10196023;29;20655;-60
2023/11/28 01:50:44;;;;;;;25.40;9.38;;;;;;;3.97;76.87;97928.25;10196308;29;20519;-60
2023/11/28 01:55:45;;;;;;;28.25;8.18;;;;;;;3.88;77.48;97931.25;10195056;29;20055;-60
2023/11/28 02:00:48;;;;;;;31.60;9.98;;;;;;;3.72;77.47;97937.69;10195810;29;20063;-61
2023/11/28 02:05:49;;;;;;;35.78;8.98;;;;;;;3.63;78.01;97949.44;10198787;29;20052;-60
2023/11/28 02:10:50;;;;;;;23.13;7.38;;;;;;;3.51;78.39;97954.44;10196686;29;20771;-60
2023/11/28 02:15:54;;;;;;;17.85;6.55;;;;;;;3.51;78.27;97949.94;10200881;29;20385;-60
2023/11/28 02:20:56;;;;;;;16.33;6.15;;;;;;;3.42;78.31;97948.44;10205224;29;20535;-61
2023/11/28 02:26:03;;;;;;;15.82;5.13;;;;;;;3.40;78.29;97953.13;10206638;29;20060;-61
2023/11/28 02:31:05;;;;;;;16.58;5.13;;;;;;;3.31;78.45;97952.41;10206380;29;20139;-61
2023/11/28 02:36:07;;;;;;;11.60;4.00;;;;;;;3.29;78.52;97957.09;10200582;29;20052;-61
2023/11/28 02:41:09;;;;;;;12.18;3.58;;;;;;;3.24;78.72;97959.50;10208049;29;20067;-61
2023/11/28 02:46:10;;;;;;;9.82;3.70;;;;;;;3.20;78.73;97965.34;10204235;29;20066;-60
2023/11/28 02:51:16;;;;;;;8.88;3.97;;;;;;;3.15;78.81;97961.44;10208919;29;20095;-61
2023/11/28 02:56:17;;;;;;;7.18;2.88;;;;;;;3.19;78.85;97964.53;10201079;29;20051;-61
2023/11/28 03:01:19;;;;;;;8.60;2.40;;;;;;;3.22;78.64;97961.53;10201736;29;20048;-61
2023/11/28 03:06:20;;;;;;;4.43;1.60;;;;;;;3.21;78.72;97980.28;10202718;29;20054;-61
2023/11/28 03:11:22;;;;;;;4.72;1.85;;;;;;;3.13;78.90;97978.56;10200608;29;20056;-61
2023/11/28 03:16:23;;;;;;;5.25;1.08;;;;;;;3.17;78.77;97988.59;10203068;29;20118;-60
2023/11/28 03:21:24;;;;;;;3.60;0.75;;;;;;;3.17;78.85;97977.19;10204677;29;20059;-59
2023/11/28 03:26:26;;;;;;;2.03;0.82;;;;;;;3.24;78.82;97990.50;10205094;29;20058;-60
2023/11/28 03:31:27;;;;;;;2.53;0.60;;;;;;;3.21;79.12;97986.41;10201845;29;20507;-60
2023/11/28 03:36:29;;;;;;;1.05;0.43;;;;;;;3.23;79.22;97986.22;10206090;29;20067;-59
2023/11/28 03:41:30;;;;;;;1.27;0.40;;;;;;;3.25;79.15;98000.13;10205665;29;20062;-60
2023/11/28 03:46:32;;;;;;;0.75;0.38;;;;;;;3.21;79.40;97999.69;10205554;29;20055;-59
2023/11/28 03:51:36;;;;;;;0.70;0.40;;;;;;;3.23;79.50;98002.97;10204288;29;20111;-59
2023/11/28 03:56:37;;;;;;;2.13;0.40;;;;;;;3.15;79.60;98014.53;10204601;29;20044;-59
2023/11/28 04:01:38;;;;;;;0.55;0.38;;;;;;;3.13;79.54;98027.16;10202462;29;20064;-59
2023/11/28 04:06:40;;;;;;;1.15;0.40;;;;;;;3.16;79.58;98032.09;10200775;29;20072;-60
2023/11/28 04:11:41;;;;;;;1.15;0.40;;;;;;;3.12;79.82;98033.50;10200681;29;20055;-59
2023/11/28 04:16:43;;;;;;;0.68;0.30;;;;;;;3.15;79.62;98049.03;10203281;29;20537;-60
2023/11/28 04:21:44;;;;;;;1.35;0.30;;;;;;;3.13;79.98;98056.34;10199552;29;20151;-59
2023/11/28 04:26:46;;;;;;;1.38;0.32;;;;;;;3.17;80.29;98067.44;10195706;29;20056;-60
2023/11/28 04:31:47;;;;;;;0.70;0.35;;;;;;;3.17;80.42;98073.56;10197619;29;20481;-60
2023/11/28 04:36:50;;;;;;;1.80;0.30;;;;;;;3.16;80.68;98089.69;10200183;29;20460;-60
2023/11/28 04:41:51;;;;;;;0.77;0.30;;;;;;;3.18;80.74;98098.28;10197633;29;20044;-60
2023/11/28 04:46:52;;;;;;;0.80;0.30;;;;;;;3.27;80.52;98107.78;10198789;29;20082;-60
2023/11/28 04:51:54;;;;;;;2.17;0.20;;;;;;;3.34;80.52;98116.66;10199481;29;20067;-60
2023/11/28 04:56:55;;;;;;;0.82;0.30;;;;;;;3.41;80.18;98130.00;10199807;29;20050;-59
2023/11/28 05:01:57;;;;;;;0.40;0.30;;;;;;;3.43;80.18;98133.31;10197133;29;20550;-60
2023/11/28 05:06:58;;;;;;;1.42;0.30;;;;;;;3.41;80.30;98150.44;10197829;29;20502;-62
2023/11/28 05:12:00;;;;;;;1.95;0.20;;;;;;;3.41;80.47;98158.41;10199702;29;20056;-60
2023/11/28 05:17:04;;;;;;;0.38;0.20;;;;;;;3.46;80.22;98162.16;10199201;29;20058;-60
2023/11/28 05:22:05;;;;;;;0.40;0.10;;;;;;;3.42;80.41;98168.03;10197978;29;20067;-60
2023/11/28 05:27:07;;;;;;;1.13;0.20;;;;;;;3.42;80.27;98191.94;10198093;29;20139;-61
2023/11/28 05:32:08;;;;;;;0.10;0.10;;;;;;;3.41;80.67;98198.25;10196792;29;20507;-60
2023/11/28 05:37:10;;;;;;;0.13;0.10;;;;;;;3.42;80.19;98213.19;10198321;29;20075;-60
2023/11/28 05:42:11;;;;;;;1.50;0.10;;;;;;;3.38;80.42;98224.16;10196220;29;20400;-60
2023/11/28 05:47:13;;;;;;;0.00;0.00;;;;;;;3.44;80.35;98227.91;10197556;29;20044;-59
2023/11/28 05:52:14;;;;;;;1.23;0.00;;;;;;;3.35;80.37;98232.47;10194727;29;20048;-60
2023/11/28 05:57:18;;;;;;;0.57;0.13;;;;;;;3.32;80.49;98254.09;10203608;29;20051;-60
2023/11/28 06:02:19;;;;;;;1.23;0.10;;;;;;;3.27;80.53;98276.88;10185645;29;20492;-60
2023/11/28 06:07:21;;;;;;;0.52;0.10;;;;;;;3.17;80.72;98269.16;10205692;29;20518;-59
2023/11/28 06:12:22;;;;;;;0.15;0.10;;;;;;;3.15;80.71;98284.47;10205773;29;20051;-59
2023/11/28 06:17:24;;;;;;;0.15;0.10;;;;;;;3.10;80.49;98292.13;10206481;29;20059;-59
2023/11/28 06:22:25;;;;;;;0.20;0.20;;;;;;;3.11;80.41;98301.75;10221619;29;20110;-59
2023/11/28 06:27:28;;;;;;;1.55;0.20;;;;;;;3.06;80.41;98320.03;10205402;29;20048;-60
2023/11/28 06:32:29;;;;;;;0.20;0.20;;;;;;;3.11;80.08;98325.63;10203501;29;20054;-59
2023/11/28 06:37:30;;;;;;;0.22;0.20;;;;;;;3.15;79.90;98350.81;10215474;29;20055;-61
2023/11/28 06:42:32;;;;;;;0.32;0.30;;;;;;;3.16;79.97;98352.47;10228981;29;20054;-61
2023/11/28 06:47:33;;;;;;;0.25;0.22;;;;;;;3.17;79.63;98383.31;10203139;29;20044;-61
2023/11/28 06:52:36;;;;;;;0.40;0.40;;;;;;;3.12;79.83;98406.91;10203598;29;20134;-61
2023/11/28 06:57:38;;;;;;;0.55;0.30;;;;;;;3.11;79.60;98426.50;10203578;29;20047;-62
2023/11/28 07:02:39;;;;;;;0.90;0.43;;;;;;;3.07;79.57;98435.81;10199003;29;20044;-62
2023/11/28 07:07:42;;;;;;;0.40;0.40;;;;;;;3.11;79.45;98447.75;10203265;29;20051;-62
2023/11/28 07:12:44;;;;;;;0.65;0.40;;;;;;;3.16;79.08;98480.72;10203471;29;20618;-62
2023/11/28 07:17:45;;;;;;;1.15;0.50;;;;;;;3.22;79.21;98495.13;10201054;29;20396;-62
2023/11/28 07:22:46;;;;;;;1.02;0.52;;;;;;;3.29;79.45;98508.53;10203238;29;20058;-61
2023/11/28 07:27:48;;;;;;;0.77;0.50;;;;;;;3.34;79.17;98528.25;10202170;29;20130;-61
2023/11/28 07:32:49;;;;;;;0.95;0.63;;;;;;;3.44;78.81;98532.53;10185659;29;20044;-61
2023/11/28 07:37:51;;;;;;;1.38;0.50;;;;;;;3.43;78.91;98549.44;10199476;29;20514;-61
2023/11/28 07:42:56;;;;;;;0.50;0.50;;;;;;;3.43;78.63;98565.38;10201469;29;20130;-63
2023/11/28 07:47:57;;;;;;;0.98;0.50;;;;;;;3.50;78.57;98580.44;10195365;29;20066;-61
2023/11/28 07:53:00;;;;;;;1.48;0.50;;;;;;;3.45;78.83;98592.59;10202232;29;20075;-61
2023/11/28 07:58:01;;;;;;;0.77;0.60;;;;;;;3.48;78.44;98601.03;10227338;29;20044;-62
2023/11/28 08:03:06;;;;;;;0.93;0.68;;;;;;;3.57;78.31;98618.59;10230298;29;20083;-59
2023/11/28 08:08:08;;;;;;;0.88;0.50;;;;;;;3.59;78.22;98623.72;10229564;29;20484;-61
2023/11/28 08:13:11;;;;;;;2.35;0.25;;;;;;;3.61;78.49;98645.63;10223159;29;20067;-59
2023/11/28 08:18:13;;;;;;;0.50;0.40;;;;;;;3.68;77.92;98659.88;10218810;29;20036;-59
2023/11/28 08:23:14;;;;;;;1.50;0.40;;;;;;;3.77;77.99;98647.38;10221717;29;20127;-61
2023/11/28 08:28:16;;;;;;;0.35;0.32;;;;;;;3.75;78.17;98670.63;10214141;29;20062;-61
2023/11/28 08:33:18;;;;;;;0.60;0.35;;;;;;;3.88;77.85;98678.06;10212018;29;20051;-60
2023/11/28 08:38:19;;;;;;;0.63;0.32;;;;;;;3.97;77.71;98683.16;10222997;29;20067;-60
2023/11/28 08:43:23;;;;;;;2.42;0.45;;;;;;;4.15;77.17;98685.53;10224280;29;20056;-60
2023/11/28 08:48:24;;;;;;;0.50;0.50;;;;;;;4.15;77.47;98701.50;10227885;29;20036;-62
2023/11/28 08:53:26;;;;;;;0.73;0.40;;;;;;;4.11;77.13;98723.31;10225705;29;20088;-61
2023/11/28 08:58:27;;;;;;;1.25;0.60;;;;;;;4.42;76.84;98733.88;10210991;29;20059;-60
2023/11/28 09:03:29;;;;;;;0.63;0.60;;;;;;;4.63;76.74;98738.56;10212355;29;20082;-62
2023/11/28 09:08:30;;;;;;;0.82;0.45;;;;;;;4.53;76.87;98777.91;10224429;29;20122;-62
2023/11/28 09:13:32;;;;;;;0.77;0.40;;;;;;;4.52;76.33;98778.88;10222861;29;20066;-61
2023/11/28 09:18:33;;;;;;;1.00;0.60;;;;;;;4.48;76.64;98807.72;10223066;29;20050;-62
2023/11/28 09:23:35;;;;;;;2.35;0.68;;;;;;;4.41;76.43;98812.06;10222120;29;20048;-60
2023/11/28 09:28:37;;;;;;;1.17;0.50;;;;;;;4.34;76.01;98822.56;10220456;29;20052;-62
2023/11/28 09:33:40;;;;;;;0.55;0.40;;;;;;;4.20;75.58;98828.59;10225330;29;20062;-62
2023/11/28 09:38:41;;;;;;;1.08;0.60;;;;;;;4.24;75.42;98824.59;10227902;29;20050;-61
2023/11/28 09:43:44;;;;;;;1.33;0.60;;;;;;;4.26;75.06;98835.06;10227201;29;20052;-61
2023/11/28 09:48:48;;;;;;;1.08;0.70;;;;;;;4.21;75.25;98840.91;10223325;29;20052;-60
2023/11/28 09:53:55;;;;;;;1.98;0.85;;;;;;;4.24;75.07;98853.03;10224220;29;20142;-61
2023/11/28 09:58:58;;;;;;;1.92;0.80;;;;;;;4.24;75.25;98866.31;10221244;29;20043;-60
2023/11/28 10:04:00;;;;;;;1.10;0.90;;;;;;;4.36;74.40;98870.25;10219839;29;20107;-62
2023/11/28 10:09:03;;;;;;;1.48;1.00;;;;;;;4.62;74.27;98877.97;10216648;29;20151;-62
2023/11/28 10:14:05;;;;;;;2.75;0.98;;;;;;;4.70;73.98;98882.41;10229621;29;20043;-61
2023/11/28 10:19:06;;;;;;;1.75;1.08;;;;;;;4.66;74.50;98889.06;10213122;29;20058;-62
2023/11/28 10:24:11;;;;;;;1.30;0.88;;;;;;;4.68;74.06;98895.06;10234928;29;20059;-61
2023/11/28 10:29:12;;;;;;;2.75;1.42;;;;;;;4.71;73.74;98900.03;10232487;29;20062;-62
2023/11/28 10:34:14;;;;;;;1.63;0.93;;;;;;;4.83;73.79;98900.47;10227583;29;20079;-60
2023/11/28 10:39:18;;;;;;;1.77;0.90;;;;;;;4.84;73.91;98918.09;10246256;29;20051;-62
2023/11/28 10:44:23;;;;;;;1.55;1.10;;;;;;;5.05;73.88;98926.31;10246846;29;20235;-62
2023/11/28 10:49:25;;;;;;;2.50;1.20;;;;;;;5.28;73.68;98934.31;10242071;29;20125;-61
2023/11/28 10:54:33;;;;;;;1.48;1.00;;;;;;;5.35;72.71;98940.63;10242403;29;20059;-62
2023/11/28 10:59:40;;;;;;;1.08;0.63;;;;;;;5.22;72.88;98939.53;10237032;29;20052;-60
2023/11/28 11:04:42;;;;;;;0.98;0.75;;;;;;;5.06;73.31;98949.28;10247684;29;20052;-60
2023/11/28 11:09:47;;;;;;;1.38;0.80;;;;;;;5.03;73.89;98948.78;10243822;28;20051;-61
2023/11/28 11:15:09;;;;;;;1.17;0.80;;;;;;;5.03;73.15;98948.78;10258124;28;20043;-61
2023/11/28 11:20:12;;;;;;;1.85;0.80;;;;;;;4.94;73.39;98959.50;10243527;29;20062;-62
2023/11/28 11:25:14;;;;;;;2.25;1.30;;;;;;;4.97;72.44;98961.78;10249574;29;20083;-61
2023/11/28 11:30:15;;;;;;;1.55;1.20;;;;;;;5.14;72.72;98961.72;10247533;29;20067;-61
2023/11/28 11:35:17;;;;;;;1.92;1.25;;;;;;;4.97;73.04;98968.97;10260582;28;20410;-61
2023/11/28 11:40:19;;;;;;;3.08;1.25;;;;;;;4.83;73.21;98991.81;10246954;29;20043;-61
2023/11/28 11:45:21;;;;;;;1.40;1.10;;;;;;;4.70;72.41;98995.03;10247418;29;20039;-62
2023/11/28 11:50:23;;;;;;;2.33;1.23;;;;;;;4.52;72.20;99005.91;10331752;23;20172;-62
2023/11/28 11:55:38;;;;;;;3.05;1.50;;;;;;;4.46;72.88;99009.22;10385295;28;20050;-63
2023/11/28 12:00:40;;;;;;;2.47;1.25;;;;;;;4.42;72.09;99034.50;10392531;28;20113;-63
2023/11/28 12:05:57;;;;;;;2.70;1.25;;;;;;;4.38;71.86;99038.50;10388668;28;20256;-63
2023/11/28 12:11:08;;;;;;;1.38;0.95;;;;;;;4.42;71.46;99042.50;10395039;28;20050;-61
2023/11/28 12:16:10;;;;;;;1.45;1.00;;;;;;;4.43;71.72;99054.00;10381199;28;20054;-62
2023/11/28 12:21:12;;;;;;;3.17;1.08;;;;;;;4.47;71.74;99065.94;10396986;28;20065;-62
2023/11/28 12:26:14;;;;;;;3.15;1.45;;;;;;;4.33;71.56;99073.59;10390858;28;20049;-62
2023/11/28 12:31:16;;;;;;;1.70;0.88;;;;;;;4.27;71.02;99082.25;10377778;28;20057;-61
2023/11/28 12:36:17;;;;;;;1.52;0.88;;;;;;;4.18;70.83;99097.38;10377891;28;20125;-61
2023/11/28 12:41:19;;;;;;;1.90;1.05;;;;;;;4.10;70.32;99104.53;10371829;28;20076;-61
2023/11/28 12:46:20;;;;;;;1.92;0.98;;;;;;;4.04;70.03;99113.16;10390118;28;20058;-63
2023/11/28 12:51:22;;;;;;;1.75;0.90;;;;;;;4.10;69.90;99145.22;10378839;28;20081;-61
2023/11/28 12:56:30;;;;;;;1.65;1.10;;;;;;;3.98;69.77;99142.06;10376957;28;20062;-62
2023/11/28 13:01:32;;;;;;;1.58;0.80;;;;;;;3.95;70.21;99154.88;10390533;28;20068;-62
2023/11/28 13:06:36;;;;;;;2.10;1.27;;;;;;;3.96;69.81;99157.34;10372117;28;20058;-62
2023/11/28 13:11:57;;;;;;;1.35;0.93;;;;;;;3.97;69.79;99174.97;10379740;28;20101;-62
2023/11/28 13:16:58;;;;;;;2.17;1.10;;;;;;;3.93;69.76;99191.38;10377333;28;20050;-62
2023/11/28 13:22:10;;;;;;;4.15;0.90;;;;;;;3.84;70.25;99192.38;10378652;28;20070;-62
2023/11/28 13:27:12;;;;;;;1.80;1.02;;;;;;;3.69;69.76;99197.47;10373062;28;20050;-62
2023/11/28 13:32:14;;;;;;;1.45;0.85;;;;;;;3.74;69.29;99206.63;10380427;28;20046;-62
2023/11/28 13:37:18;;;;;;;1.42;0.80;;;;;;;3.69;69.04;99221.38;10383288;28;20045;-63
2023/11/28 13:42:19;;;;;;;1.63;0.70;;;;;;;3.65;69.64;99233.31;10392749;28;20054;-62
2023/11/28 13:47:21;;;;;;;1.70;0.60;;;;;;;3.61;69.28;99238.13;10339349;28;20413;-65
2023/11/28 13:52:23;;;;;;;1.13;0.73;;;;;;;3.53;69.00;99256.69;10340319;28;20513;-65
2023/11/28 13:57:26;;;;;;;1.08;0.70;;;;;;;3.44;68.92;99266.44;10337608;28;20608;-64
2023/11/28 14:02:28;;;;;;;1.70;0.95;;;;;;;3.44;68.86;99282.38;10336184;28;20042;-64
2023/11/28 14:07:45;;;;;;;1.73;1.00;;;;;;;3.47;68.81;99281.22;10321744;28;20349;-64
2023/11/28 14:12:47;;;;;;;0.90;0.70;;;;;;;3.40;68.95;99290.78;10340097;28;20054;-64
2023/11/28 14:17:49;;;;;;;1.40;0.90;;;;;;;3.38;68.43;99301.59;10349736;28;20054;-64
2023/11/28 14:22:51;;;;;;;0.80;0.60;;;;;;;3.36;68.38;99307.06;10347524;28;20517;-63
2023/11/28 14:27:52;;;;;;;0.73;0.50;;;;;;;3.28;68.37;99319.44;10329547;28;20051;-64
2023/11/28 14:32:53;;;;;;;2.20;0.82;;;;;;;3.21;68.09;99315.75;10342994;28;20065;-66
2023/11/28 14:37:55;;;;;;;2.83;0.82;;;;;;;3.12;68.41;99336.94;10346677;28;20062;-66
2023/11/28 14:42:56;;;;;;;1.30;0.80;;;;;;;3.09;68.27;99347.00;10324359;28;20042;-64
2023/11/28 14:47:58;;;;;;;3.65;1.23;;;;;;;3.07;68.19;99373.69;10341989;28;20095;-64
2023/11/28 14:53:00;;;;;;;1.40;1.10;;;;;;;3.06;68.17;99387.97;10351372;28;20184;-64
2023/11/28 14:58:01;;;;;;;1.65;1.10;;;;;;;2.95;67.89;99401.47;10344884;28;20075;-64
2023/11/28 15:03:04;;;;;;;1.23;0.75;;;;;;;2.96;67.89;99411.94;10340741;28;20051;-65
2023/11/28 15:08:08;;;;;;;1.80;0.70;;;;;;;3.00;67.94;99415.09;10344427;28;20056;-65
2023/11/28 15:13:41;;;;;;;1.02;0.70;;;;;;;2.89;67.52;99439.22;10345087;28;20050;-65
2023/11/28 15:18:43;;;;;;;1.05;0.50;;;;;;;2.95;67.63;99443.94;10346126;28;20048;-65
2023/11/28 15:23:44;;;;;;;0.77;0.60;;;;;;;2.96;67.33;99453.56;10324978;28;20050;-66
2023/11/28 15:28:46;;;;;;;2.15;0.70;;;;;;;2.82;67.34;99457.53;10341154;28;20069;-65
2023/11/28 15:33:48;;;;;;;1.85;0.57;;;;;;;2.69;66.31;99467.69;10338871;28;20046;-65
2023/11/28 15:38:50;;;;;;;2.55;0.70;;;;;;;2.70;66.30;99480.78;10340545;28;20060;-65
2023/11/28 15:43:51;;;;;;;1.75;0.68;;;;;;;2.82;66.35;99485.91;10338314;28;20080;-60
2023/11/28 15:48:53;;;;;;;1.95;0.63;;;;;;;2.75;66.42;99486.50;10317840;28;20050;-60
2023/11/28 15:53:54;;;;;;;2.97;1.02;;;;;;;2.71;66.98;99482.47;10333914;28;20777;-60
2023/11/28 15:58:56;;;;;;;0.90;0.63;;;;;;;2.64;66.79;99488.50;10335697;28;20061;-60
2023/11/28 16:03:58;;;;;;;1.85;0.90;;;;;;;2.54;66.33;99489.38;10336597;28;20058;-60
2023/11/28 16:08:59;;;;;;;2.42;1.00;;;;;;;2.37;65.71;99493.66;10337591;28;20050;-61
2023/11/28 16:14:01;;;;;;;1.83;0.90;;;;;;;2.34;65.14;99491.28;10340745;28;20498;-60
2023/11/28 16:19:02;;;;;;;1.15;0.93;;;;;;;2.27;65.29;99500.81;10346090;28;20061;-61
2023/11/28 16:24:05;;;;;;;2.67;1.15;;;;;;;2.32;65.45;99500.34;10346526;28;20402;-61
2023/11/28 16:29:07;;;;;;;3.33;1.30;;;;;;;2.30;65.79;99503.16;10343088;28;20355;-62
2023/11/28 16:34:08;;;;;;;1.05;0.95;;;;;;;2.40;65.81;99507.59;10356199;28;20061;-61
2023/11/28 16:39:11;;;;;;;1.45;0.80;;;;;;;2.45;65.83;99516.78;10351496;28;20141;-61
2023/11/28 16:44:13;;;;;;;1.40;1.08;;;;;;;2.43;65.87;99517.91;10327956;28;20447;-61
2023/11/28 16:49:14;;;;;;;0.70;0.52;;;;;;;2.51;66.02;99520.69;10332926;28;20417;-60
2023/11/28 16:54:16;;;;;;;2.65;0.85;;;;;;;2.51;66.20;99531.31;10335975;28;20046;-61
2023/11/28 16:59:18;;;;;;;3.10;1.52;;;;;;;2.76;66.21;99543.06;10346904;28;20134;-61
2023/11/28 17:04:20;;;;;;;3.60;1.90;;;;;;;2.81;66.56;99548.78;10330310;28;20065;-61
2023/11/28 17:09:24;;;;;;;1.92;1.30;;;;;;;2.72;67.02;99545.16;10332732;28;20057;-61
2023/11/28 17:14:26;;;;;;;3.33;1.13;;;;;;;2.70;66.94;99547.13;10324989;28;20054;-61
2023/11/28 17:19:29;;;;;;;1.60;0.80;;;;;;;2.60;67.40;99550.81;10327898;28;20042;-60
2023/11/28 17:24:31;;;;;;;2.33;0.95;;;;;;;2.62;67.46;99539.06;10340857;28;20442;-61
2023/11/28 17:29:32;;;;;;;1.27;0.80;;;;;;;2.67;67.14;99526.22;10346137;28;20057;-60
2023/11/28 17:34:34;;;;;;;2.15;0.73;;;;;;;2.72;66.86;99525.75;10332955;28;20062;-61
2023/11/28 17:39:41;;;;;;;8.27;1.70;;;;;;;2.48;67.54;99536.88;10329029;28;20157;-60
2023/11/28 17:44:43;;;;;;;2.78;0.82;;;;;;;2.37;67.92;99541.38;10349822;28;20068;-62
2023/11/28 17:49:44;;;;;;;2.90;1.30;;;;;;;2.27;68.09;99559.13;10347423;28;20054;-61
2023/11/28 17:54:47;;;;;;;2.53;1.30;;;;;;;2.31;67.79;99538.44;10354957;28;20585;-61
2023/11/28 17:59:48;;;;;;;4.20;1.75;;;;;;;2.33;67.97;99536.50;10349538;28;20441;-61
2023/11/28 18:04:49;;;;;;;3.58;1.40;;;;;;;2.33;68.24;99541.78;10354036;28;20049;-61
2023/11/28 18:09:51;;;;;;;3.78;1.77;;;;;;;2.32;68.46;99546.25;10335937;28;20242;-63
2023/11/28 18:14:52;;;;;;;4.70;1.77;;;;;;;2.36;68.11;99573.34;10353111;28;20053;-61
2023/11/28 18:19:54;;;;;;;2.78;1.50;;;;;;;2.30;68.70;99571.25;10336074;28;20144;-61
2023/11/28 18:24:55;;;;;;;1.80;1.52;;;;;;;2.28;68.29;99582.00;10337518;28;20046;-60
2023/11/28 18:29:57;;;;;;;2.50;1.88;;;;;;;2.22;68.69;99584.41;10365100;28;20133;-62
2023/11/28 18:34:58;;;;;;;6.32;2.60;;;;;;;2.31;68.45;99588.81;10363332;28;20048;-59
2023/11/28 18:40:00;;;;;;;11.20;3.65;;;;;;;2.25;67.80;99594.69;10360462;28;20421;-61
2023/11/28 18:45:02;;;;;;;4.47;1.95;;;;;;;2.23;68.08;99588.69;10362254;28;20076;-62
2023/11/28 18:50:04;;;;;;;2.90;1.45;;;;;;;2.23;68.19;99584.22;10362752;28;20046;-62
2023/11/28 18:55:08;;;;;;;1.45;0.88;;;;;;;2.26;67.86;99576.00;10360141;28;20105;-63
2023/11/28 19:00:09;;;;;;;1.77;0.90;;;;;;;2.34;67.52;99564.69;10346140;28;20045;-60
2023/11/28 19:05:13;;;;;;;2.50;1.13;;;;;;;2.48;67.33;99561.59;10365310;28;20132;-62
2023/11/28 19:10:15;;;;;;;4.93;1.17;;;;;;;2.62;67.33;99567.41;10365483;28;20116;-63
2023/11/28 19:15:16;;;;;;;2.70;1.40;;;;;;;2.69;67.19;99576.47;10362242;28;20050;-61
2023/11/28 19:20:22;;;;;;;5.13;1.75;;;;;;;2.70;67.16;99584.28;10360349;28;20054;-60
2023/11/28 19:25:25;;;;;;;2.92;1.38;;;;;;;2.78;66.74;99587.06;10355590;28;20832;-61
2023/11/28 19:30:27;;;;;;;5.07;1.90;;;;;;;2.84;67.02;99593.59;10366568;28;20048;-61
2023/11/28 19:35:28;;;;;;;3.65;2.28;;;;;;;2.88;66.82;99597.63;10351287;28;20046;-62
2023/11/28 19:40:30;;;;;;;14.45;4.88;;;;;;;2.92;67.33;99612.31;10341929;28;20440;-62
2023/11/28 19:45:32;;;;;;;9.88;3.65;;;;;;;2.99;67.18;99604.59;10344745;28;20054;-62
2023/11/28 19:50:34;;;;;;;6.50;3.03;;;;;;;2.95;67.30;99608.50;10328423;28;20049;-63
2023/11/28 19:55:35;;;;;;;8.10;3.75;;;;;;;2.95;66.99;99616.47;10344184;28;22383;-61
2023/11/28 20:00:39;;;;;;;5.80;3.08;;;;;;;2.95;67.29;99612.00;10354398;28;20076;-61
2023/11/28 20:05:43;;;;;;;6.97;3.00;;;;;;;2.94;67.42;99615.66;10354146;28;20544;-61
2023/11/28 20:10:45;;;;;;;3.88;2.15;;;;;;;2.80;67.48;99623.22;10349686;28;20055;-60
2023/11/28 20:15:47;;;;;;;4.75;2.17;;;;;;;2.79;67.61;99633.00;10366611;28;20049;-61
2023/11/28 20:20:48;;;;;;;5.60;2.40;;;;;;;2.72;68.10;99642.50;10363069;28;20056;-61
2023/11/28 20:25:50;;;;;;;3.53;2.20;;;;;;;2.70;68.08;99624.06;10349579;28;20046;-61
2023/11/28 20:30:51;;;;;;;6.28;2.35;;;;;;;2.59;68.00;99608.34;10327017;28;20042;-61
2023/11/28 20:36:01;;;;;;;5.88;1.85;;;;;;;2.65;68.11;99620.22;10345322;28;20358;-61
2023/11/28 20:41:03;;;;;;;4.45;1.98;;;;;;;2.65;67.70;99617.56;10333708;28;20515;-62
2023/11/28 20:46:05;;;;;;;3.60;1.85;;;;;;;2.56;68.31;99622.72;10342258;28;20042;-61
2023/11/28 20:51:07;;;;;;;3.63;1.67;;;;;;;2.57;68.15;99602.34;10360385;28;20058;-60
2023/11/28 20:56:08;;;;;;;5.97;2.72;;;;;;;2.63;68.36;99598.28;10373425;28;20038;-62
2023/11/28 21:01:10;;;;;;;3.25;1.90;;;;;;;2.66;67.73;99614.72;10377888;28;20042;-61
2023/11/28 21:06:15;;;;;;;4.47;2.22;;;;;;;2.64;68.18;99605.25;10380275;28;20060;-61
2023/11/28 21:11:17;;;;;;;4.97;2.00;;;;;;;2.67;68.03;99602.31;10374458;28;20077;-61
2023/11/28 21:16:22;;;;;;;4.00;1.77;;;;;;;2.52;68.26;99601.94;10370932;28;20053;-60
2023/11/28 21:21:26;;;;;;;6.45;2.90;;;;;;;2.54;67.99;99595.50;10370028;28;20037;-62
2023/11/28 21:26:27;;;;;;;3.28;1.80;;;;;;;2.58;68.19;99609.31;10371945;28;20072;-62
2023/11/28 21:31:33;;;;;;;4.85;2.40;;;;;;;2.61;67.80;99602.88;10371465;28;20073;-61
2023/11/28 21:36:34;;;;;;;6.53;2.75;;;;;;;2.50;68.41;99610.03;10369046;28;20046;-61
2023/11/28 21:41:39;;;;;;;4.22;2.30;;;;;;;2.46;68.28;99603.31;10366741;28;20042;-61
2023/11/28 21:46:41;;;;;;;6.45;2.33;;;;;;;2.47;68.44;99601.50;10343286;28;20041;-62
2023/11/28 21:51:45;;;;;;;7.03;3.05;;;;;;;2.43;68.24;99586.84;10334396;28;20038;-61
2023/11/28 21:56:47;;;;;;;5.03;2.50;;;;;;;2.40;68.68;99581.84;10347856;28;20057;-62
2023/11/28 22:01:48;;;;;;;6.00;3.08;;;;;;;2.28;68.56;99582.00;10344523;28;20506;-60
2023/11/28 22:06:50;;;;;;;6.25;2.67;;;;;;;2.27;68.92;99576.84;10343552;28;20081;-61
2023/11/28 22:11:51;;;;;;;9.35;3.85;;;;;;;2.22;68.53;99576.44;10343733;28;20037;-62
2023/11/28 22:16:53;;;;;;;7.07;3.47;;;;;;;2.23;68.96;99578.09;10331085;28;20046;-62
2023/11/28 22:21:55;;;;;;;8.18;3.45;;;;;;;2.08;68.79;99583.84;10351769;28;20046;-61
2023/11/28 22:26:57;;;;;;;6.10;2.92;;;;;;;2.02;68.94;99587.06;10348957;28;20046;-61
2023/11/28 22:31:59;;;;;;;7.07;3.08;;;;;;;1.94;68.75;99597.53;10342606;28;20058;-61
2023/11/28 22:37:01;;;;;;;4.72;2.35;;;;;;;1.96;68.82;99612.31;10350280;28;20052;-63
2023/11/28 22:42:04;;;;;;;4.70;2.80;;;;;;;1.98;68.76;99612.16;10347583;28;20259;-62
2023/11/28 22:47:09;;;;;;;5.35;3.10;;;;;;;2.03;69.40;99612.56;10339801;28;20337;-61
2023/11/28 22:52:11;;;;;;;6.00;2.92;;;;;;;2.07;69.04;99611.31;10335217;28;20056;-61
2023/11/28 22:57:13;;;;;;;8.68;3.95;;;;;;;2.00;69.42;99609.38;10341623;28;20050;-60
2023/11/28 23:02:16;;;;;;;7.43;3.42;;;;;;;1.96;69.05;99612.31;10335191;28;20081;-63
2023/11/28 23:07:18;;;;;;;10.00;4.15;;;;;;;1.95;69.06;99599.19;10322662;28;20050;-62
2023/11/28 23:12:19;;;;;;;6.90;3.33;;;;;;;1.85;69.42;99595.69;10317172;28;20049;-61
2023/11/28 23:17:22;;;;;;;7.93;3.33;;;;;;;1.75;69.67;99585.91;10324312;28;20396;-61
2023/11/28 23:22:23;;;;;;;6.53;3.67;;;;;;;1.66;69.02;99577.97;10326996;28;20042;-63
2023/11/28 23:27:25;;;;;;;9.15;3.83;;;;;;;1.54;69.34;99571.94;10324319;28;20035;-62
2023/11/28 23:32:26;;;;;;;7.40;3.70;;;;;;;1.36;70.02;99561.19;10317144;28;20039;-62
2023/11/28 23:37:29;;;;;;;8.10;3.45;;;;;;;1.26;70.24;99577.06;10318126;28;20054;-62